sensor_id;sensor_type;location;lat;lon;timestamp;pressure;altitude;pressure_sealevel;temperature;humidity
4398;BME280;2213;49.720;7.296;2023-04-29T00:00:51;97864.59;;;12.25;100.00
4398;BME280;2213;49.720;7.296;2023-04-29T00:03:20;97866.59;;;12.23;100.00
4398;BME280;2213;49.720;7.296;2023-04-29T00:05:50;97866.19;;;12.19;100.00
4398;BME280;2213;49.720;7.296;2023-04-29T00:08:20;97865.38;;;12.19;100.00
4398;BME280;2213;49.720;7.296;2023-04-29T00:10:50;97864.97;;;12.15;100.00
4398;BME280;2213;49.720;7.296;2023-04-29T00:13:19;97866.00;;;12.14;100.00
4398;BME280;2213;49.720;7.296;2023-04-29T00:15:48;97863.16;;;12.09;100.00
4398;BME280;2213;49.720;7.296;2023-04-29T00:18:18;97862.16;;;12.03;100.00
4398;BME280;2213;49.720;7.296;2023-04-29T00:20:47;97860.94;;;12.06;100.00
4398;BME280;2213;49.720;7.296;2023-04-29T00:23:17;97855.72;;;12.06;100.00
4398;BME280;2213;49.720;7.296;2023-04-29T00:25:48;97863.75;;;12.04;100.00
4398;BME280;2213;49.720;7.296;2023-04-29T00:28:20;97862.97;;;12.04;100.00
4398;BME280;2213;49.720;7.296;2023-04-29T00:30:51;97863.97;;;12.03;100.00
4398;BME280;2213;49.720;7.296;2023-04-29T00:33:21;97863.97;;;12.03;100.00
4398;BME280;2213;49.720;7.296;2023-04-29T00:35:51;97864.97;;;12.02;100.00
4398;BME280;2213;49.720;7.296;2023-04-29T00:38:21;97874.66;;;12.01;100.00
4398;BME280;2213;49.720;7.296;2023-04-29T00:40:53;97869.81;;;11.98;100.00
4398;BME280;2213;49.720;7.296;2023-04-29T00:43:23;97874.66;;;11.95;100.00
4398;BME280;2213;49.720;7.296;2023-04-29T00:45:54;97867.81;;;11.94;100.00
4398;BME280;2213;49.720;7.296;2023-04-29T00:48:24;97871.44;;;11.93;100.00
4398;BME280;2213;49.720;7.296;2023-04-29T00:50:53;97871.03;;;11.89;100.00
4398;BME280;2213;49.720;7.296;2023-04-29T00:53:23;97863.75;;;11.85;100.00
4398;BME280;2213;49.720;7.296;2023-04-29T00:55:55;97864.56;;;11.85;100.00
4398;BME280;2213;49.720;7.296;2023-04-29T00:58:25;97856.09;;;11.83;100.00
4398;BME280;2213;49.720;7.296;2023-04-29T01:01:01;97856.88;;;11.77;100.00
4398;BME280;2213;49.720;7.296;2023-04-29T01:03:31;97866.16;;;11.80;100.00
4398;BME280;2213;49.720;7.296;2023-04-29T01:06:12;97861.91;;;11.72;100.00
4398;BME280;2213;49.720;7.296;2023-04-29T01:09:02;97866.13;;;11.73;100.00
4398;BME280;2213;49.720;7.296;2023-04-29T01:11:48;97870.34;;;11.68;100.00
4398;BME280;2213;49.720;7.296;2023-04-29T01:14:23;97868.72;;;11.67;100.00
4398;BME280;2213;49.720;7.296;2023-04-29T01:17:01;97876.78;;;11.65;100.00
4398;BME280;2213;49.720;7.296;2023-04-29T01:19:43;97876.97;;;11.63;100.00
4398;BME280;2213;49.720;7.296;2023-04-29T01:22:14;97875.16;;;11.64;100.00
4398;BME280;2213;49.720;7.296;2023-04-29T01:24:46;97866.88;;;11.60;100.00
4398;BME280;2213;49.720;7.296;2023-04-29T01:27:28;97872.94;;;11.54;100.00
4398;BME280;2213;49.720;7.296;2023-04-29T01:30:09;97875.53;;;11.54;100.00
4398;BME280;2213;49.720;7.296;2023-04-29T01:32:51;97876.53;;;11.53;100.00
4398;BME280;2213;49.720;7.296;2023-04-29T01:35:49;97873.72;;;11.48;100.00
4398;BME280;2213;49.720;7.296;2023-04-29T01:38:35;97881.34;;;11.50;100.00
4398;BME280;2213;49.720;7.296;2023-04-29T01:41:13;97879.72;;;11.49;100.00
4398;BME280;2213;49.720;7.296;2023-04-29T01:43:49;97885.78;;;11.49;100.00
4398;BME280;2213;49.720;7.296;2023-04-29T01:46:20;97880.56;;;11.49;100.00
4398;BME280;2213;49.720;7.296;2023-04-29T01:48:53;97878.56;;;11.51;100.00
4398;BME280;2213;49.720;7.296;2023-04-29T01:51:23;97880.16;;;11.52;100.00
4398;BME280;2213;49.720;7.296;2023-04-29T01:53:52;97884.59;;;11.52;100.00
4398;BME280;2213;49.720;7.296;2023-04-29T01:56:24;97887.22;;;11.52;100.00
4398;BME280;2213;49.720;7.296;2023-04-29T01:58:54;97885.38;;;11.52;100.00
4398;BME280;2213;49.720;7.296;2023-04-29T02:01:24;97893.25;;;11.52;100.00
4398;BME280;2213;49.720;7.296;2023-04-29T02:03:54;97898.31;;;11.54;100.00
4398;BME280;2213;49.720;7.296;2023-04-29T02:06:24;97891.25;;;11.54;100.00
4398;BME280;2213;49.720;7.296;2023-04-29T02:08:55;97888.25;;;11.57;100.00
4398;BME280;2213;49.720;7.296;2023-04-29T02:11:27;97891.84;;;11.56;100.00
4398;BME280;2213;49.720;7.296;2023-04-29T02:13:57;97894.47;;;11.56;100.00
4398;BME280;2213;49.720;7.296;2023-04-29T02:16:25;97897.09;;;11.56;100.00
4398;BME280;2213;49.720;7.296;2023-04-29T02:18:55;97897.72;;;11.58;100.00
4398;BME280;2213;49.720;7.296;2023-04-29T02:21:26;97895.09;;;11.58;100.00
4398;BME280;2213;49.720;7.296;2023-04-29T02:23:56;97894.69;;;11.61;100.00
4398;BME280;2213;49.720;7.296;2023-04-29T02:26:27;97896.50;;;11.61;100.00
4398;BME280;2213;49.720;7.296;2023-04-29T02:28:58;97896.31;;;11.63;100.00
4398;BME280;2213;49.720;7.296;2023-04-29T02:31:29;97901.56;;;11.63;100.00
4398;BME280;2213;49.720;7.296;2023-04-29T02:33:59;97895.31;;;11.63;100.00
4398;BME280;2213;49.720;7.296;2023-04-29T02:36:29;97895.13;;;11.65;100.00
4398;BME280;2213;49.720;7.296;2023-04-29T02:38:58;97894.13;;;11.66;100.00
4398;BME280;2213;49.720;7.296;2023-04-29T02:41:30;97895.94;;;11.66;100.00
4398;BME280;2213;49.720;7.296;2023-04-29T02:44:00;97895.53;;;11.69;100.00
4398;BME280;2213;49.720;7.296;2023-04-29T02:46:30;97896.75;;;11.66;100.00
4398;BME280;2213;49.720;7.296;2023-04-29T02:49:02;97894.34;;;11.71;100.00
4398;BME280;2213;49.720;7.296;2023-04-29T02:51:33;97896.34;;;11.69;100.00
4398;BME280;2213;49.720;7.296;2023-04-29T02:54:01;97903.03;;;11.72;100.00
4398;BME280;2213;49.720;7.296;2023-04-29T02:56:33;97895.75;;;11.74;100.00
4398;BME280;2213;49.720;7.296;2023-04-29T02:59:03;97898.78;;;11.77;100.00
4398;BME280;2213;49.720;7.296;2023-04-29T03:01:32;97897.63;;;11.80;100.00
4398;BME280;2213;49.720;7.296;2023-04-29T03:04:03;97896.78;;;11.79;100.00
4398;BME280;2213;49.720;7.296;2023-04-29T03:06:33;97897.22;;;11.83;100.00
4398;BME280;2213;49.720;7.296;2023-04-29T03:09:03;97896.81;;;11.86;100.00
4398;BME280;2213;49.720;7.296;2023-04-29T03:11:34;97894.78;;;11.88;100.00
4398;BME280;2213;49.720;7.296;2023-04-29T03:14:04;97895.41;;;11.90;100.00
4398;BME280;2213;49.720;7.296;2023-04-29T03:16:33;97898.63;;;11.92;100.00
4398;BME280;2213;49.720;7.296;2023-04-29T03:19:03;97905.09;;;11.96;100.00
4398;BME280;2213;49.720;7.296;2023-04-29T03:21:34;97906.91;;;11.95;100.00
4398;BME280;2213;49.720;7.296;2023-04-29T03:24:06;97904.09;;;11.97;100.00
4398;BME280;2213;49.720;7.296;2023-04-29T03:26:36;97903.28;;;11.96;100.00
4398;BME280;2213;49.720;7.296;2023-04-29T03:29:05;97914.34;;;11.98;100.00
4398;BME280;2213;49.720;7.296;2023-04-29T03:31:34;97913.16;;;12.01;100.00
4398;BME280;2213;49.720;7.296;2023-04-29T03:34:04;97912.16;;;12.02;100.00
4398;BME280;2213;49.720;7.296;2023-04-29T03:36:35;97911.34;;;12.01;100.00
4398;BME280;2213;49.720;7.296;2023-04-29T03:39:05;97919.41;;;12.06;100.00
4398;BME280;2213;49.720;7.296;2023-04-29T03:41:37;97921.03;;;12.07;100.00
4398;BME280;2213;49.720;7.296;2023-04-29T03:44:07;97921.81;;;12.08;100.00
4398;BME280;2213;49.720;7.296;2023-04-29T03:46:38;97919.03;;;12.09;100.00
4398;BME280;2213;49.720;7.296;2023-04-29T03:49:08;97926.69;;;12.11;100.00
4398;BME280;2213;49.720;7.296;2023-04-29T03:51:38;97917.00;;;12.11;100.00
4398;BME280;2213;49.720;7.296;2023-04-29T03:54:08;97914.19;;;12.13;100.00
4398;BME280;2213;49.720;7.296;2023-04-29T03:56:40;97918.44;;;12.14;100.00
4398;BME280;2213;49.720;7.296;2023-04-29T03:59:11;97920.25;;;12.14;100.00
4398;BME280;2213;49.720;7.296;2023-04-29T04:01:41;97918.22;;;12.16;100.00
4398;BME280;2213;49.720;7.296;2023-04-29T04:04:11;97921.88;;;12.15;100.00
4398;BME280;2213;49.720;7.296;2023-04-29T04:06:43;97921.63;;;12.09;100.00
4398;BME280;2213;49.720;7.296;2023-04-29T04:09:18;97927.88;;;12.08;100.00
4398;BME280;2213;49.720;7.296;2023-04-29T04:11:49;97919.03;;;12.09;100.00
4398;BME280;2213;49.720;7.296;2023-04-29T04:14:19;97924.06;;;12.11;100.00
4398;BME280;2213;49.720;7.296;2023-04-29T04:16:48;97927.47;;;12.11;100.00
4398;BME280;2213;49.720;7.296;2023-04-29T04:19:18;97931.31;;;12.09;100.00
4398;BME280;2213;49.720;7.296;2023-04-29T04:21:48;97939.59;;;12.13;100.00
4398;BME280;2213;49.720;7.296;2023-04-29T04:24:18;97934.56;;;12.11;100.00
4398;BME280;2213;49.720;7.296;2023-04-29T04:26:49;97942.78;;;12.08;100.00
4398;BME280;2213;49.720;7.296;2023-04-29T04:29:19;97949.06;;;12.07;100.00
4398;BME280;2213;49.720;7.296;2023-04-29T04:31:50;97948.03;;;12.08;100.00
4398;BME280;2213;49.720;7.296;2023-04-29T04:34:19;97948.84;;;12.08;100.00
4398;BME280;2213;49.720;7.296;2023-04-29T04:36:50;97957.31;;;12.04;100.00
4398;BME280;2213;49.720;7.296;2023-04-29T04:39:20;97951.28;;;12.03;100.00
4398;BME280;2213;49.720;7.296;2023-04-29T04:41:51;97961.34;;;12.06;100.00
4398;BME280;2213;49.720;7.296;2023-04-29T04:44:22;97964.38;;;12.10;100.00
4398;BME280;2213;49.720;7.296;2023-04-29T04:46:51;97963.75;;;12.08;100.00
4398;BME280;2213;49.720;7.296;2023-04-29T04:49:20;97966.38;;;12.08;100.00
4398;BME280;2213;49.720;7.296;2023-04-29T04:51:52;97972.25;;;12.10;100.00
4398;BME280;2213;49.720;7.296;2023-04-29T04:54:21;97975.47;;;12.12;100.00
4398;BME280;2213;49.720;7.296;2023-04-29T04:56:53;97972.25;;;12.10;100.00
4398;BME280;2213;49.720;7.296;2023-04-29T04:59:23;97982.34;;;12.13;100.00
4398;BME280;2213;49.720;7.296;2023-04-29T05:01:53;97984.38;;;12.11;100.00
4398;BME280;2213;49.720;7.296;2023-04-29T05:04:22;97981.94;;;12.09;100.00
4398;BME280;2213;49.720;7.296;2023-04-29T05:06:51;97986.97;;;12.11;100.00
4398;BME280;2213;49.720;7.296;2023-04-29T05:09:22;97991.81;;;12.14;100.00
4398;BME280;2213;49.720;7.296;2023-04-29T05:11:55;97995.25;;;12.15;100.00
4398;BME280;2213;49.720;7.296;2023-04-29T05:14:26;97989.22;;;12.14;100.00
4398;BME280;2213;49.720;7.296;2023-04-29T05:16:58;97999.69;;;12.14;100.00
4398;BME280;2213;49.720;7.296;2023-04-29T05:19:29;97998.25;;;12.11;100.00
4398;BME280;2213;49.720;7.296;2023-04-29T05:21:59;98002.50;;;12.13;100.00
4398;BME280;2213;49.720;7.296;2023-04-29T05:24:28;98010.78;;;12.16;100.00
4398;BME280;2213;49.720;7.296;2023-04-29T05:26:59;98004.53;;;12.17;100.00
4398;BME280;2213;49.720;7.296;2023-04-29T05:29:31;98010.78;;;12.16;100.00
4398;BME280;2213;49.720;7.296;2023-04-29T05:32:01;98007.97;;;12.18;100.00
4398;BME280;2213;49.720;7.296;2023-04-29T05:34:31;98009.78;;;12.17;100.00
4398;BME280;2213;49.720;7.296;2023-04-29T05:37:01;98013.00;;;12.19;100.00
4398;BME280;2213;49.720;7.296;2023-04-29T05:39:31;98013.00;;;12.19;100.00
4398;BME280;2213;49.720;7.296;2023-04-29T05:42:02;98009.19;;;12.22;100.00
4398;BME280;2213;49.720;7.296;2023-04-29T05:44:33;98013.00;;;12.19;100.00
4398;BME280;2213;49.720;7.296;2023-04-29T05:47:03;98015.63;;;12.19;100.00
4398;BME280;2213;49.720;7.296;2023-04-29T05:49:32;98016.44;;;12.20;100.00
4398;BME280;2213;49.720;7.296;2023-04-29T05:52:02;98019.88;;;12.20;100.00
4398;BME280;2213;49.720;7.296;2023-04-29T05:54:34;98026.34;;;12.24;100.00
4398;BME280;2213;49.720;7.296;2023-04-29T05:57:05;98022.31;;;12.22;100.00
4398;BME280;2213;49.720;7.296;2023-04-29T05:59:34;98031.56;;;12.24;100.00
4398;BME280;2213;49.720;7.296;2023-04-29T06:02:04;98026.13;;;12.26;100.00
4398;BME280;2213;49.720;7.296;2023-04-29T06:04:39;98026.75;;;12.28;100.00
4398;BME280;2213;49.720;7.296;2023-04-29T06:07:15;98023.91;;;12.29;100.00
4398;BME280;2213;49.720;7.296;2023-04-29T06:09:46;98033.16;;;12.25;100.00
4398;BME280;2213;49.720;7.296;2023-04-29T06:12:17;98043.28;;;12.22;100.00
4398;BME280;2213;49.720;7.296;2023-04-29T06:14:48;98048.91;;;12.25;100.00
4398;BME280;2213;49.720;7.296;2023-04-29T06:17:18;98052.56;;;12.24;100.00
4398;BME280;2213;49.720;7.296;2023-04-29T06:19:47;98046.69;;;12.22;100.00
4398;BME280;2213;49.720;7.296;2023-04-29T06:22:17;98045.69;;;12.23;100.00
4398;BME280;2213;49.720;7.296;2023-04-29T06:24:46;98053.56;;;12.23;100.00
4398;BME280;2213;49.720;7.296;2023-04-29T06:27:17;98049.28;;;12.16;100.00
4398;BME280;2213;49.720;7.296;2023-04-29T06:29:48;98051.31;;;12.20;100.00
4398;BME280;2213;49.720;7.296;2023-04-29T06:32:18;98051.72;;;12.17;100.00
4398;BME280;2213;49.720;7.296;2023-04-29T06:34:49;98054.53;;;12.22;100.00
4398;BME280;2213;49.720;7.296;2023-04-29T06:37:19;98065.25;;;12.27;100.00
4398;BME280;2213;49.720;7.296;2023-04-29T06:39:49;98065.03;;;12.22;100.00
4398;BME280;2213;49.720;7.296;2023-04-29T06:42:21;98066.66;;;12.23;100.00
4398;BME280;2213;49.720;7.296;2023-04-29T06:44:51;98068.25;;;12.18;100.00
4398;BME280;2213;49.720;7.296;2023-04-29T06:47:22;98071.47;;;12.20;100.00
4398;BME280;2213;49.720;7.296;2023-04-29T06:49:51;98079.59;;;12.25;100.00
4398;BME280;2213;49.720;7.296;2023-04-29T06:52:22;98084.22;;;12.29;100.00
4398;BME280;2213;49.720;7.296;2023-04-29T06:54:52;98089.47;;;12.29;100.00
4398;BME280;2213;49.720;7.296;2023-04-29T06:57:23;98085.44;;;12.33;100.00
4398;BME280;2213;49.720;7.296;2023-04-29T06:59:53;98094.72;;;12.29;100.00
4398;BME280;2213;49.720;7.296;2023-04-29T07:02:23;98096.72;;;12.27;100.00
4398;BME280;2213;49.720;7.296;2023-04-29T07:04:54;98098.94;;;12.30;100.00
4398;BME280;2213;49.720;7.296;2023-04-29T07:07:24;98102.56;;;12.29;100.00
4398;BME280;2213;49.720;7.296;2023-04-29T07:09:54;98102.56;;;12.23;100.00
4398;BME280;2213;49.720;7.296;2023-04-29T07:12:27;98104.78;;;12.26;100.00
4398;BME280;2213;49.720;7.296;2023-04-29T07:14:56;98104.78;;;12.26;100.00
4398;BME280;2213;49.720;7.296;2023-04-29T07:17:29;98108.22;;;12.26;100.00
4398;BME280;2213;49.720;7.296;2023-04-29T07:19:59;98116.50;;;12.30;100.00
4398;BME280;2213;49.720;7.296;2023-04-29T07:22:28;98128.22;;;12.34;100.00
4398;BME280;2213;49.720;7.296;2023-04-29T07:24:58;98123.38;;;12.37;100.00
4398;BME280;2213;49.720;7.296;2023-04-29T07:27:29;98134.91;;;12.43;100.00
4398;BME280;2213;49.720;7.296;2023-04-29T07:30:00;98136.50;;;12.37;100.00
4398;BME280;2213;49.720;7.296;2023-04-29T07:32:29;98139.34;;;12.42;100.00
4398;BME280;2213;49.720;7.296;2023-04-29T07:34:59;98148.22;;;12.41;100.00
4398;BME280;2213;49.720;7.296;2023-04-29T07:37:29;98143.38;;;12.38;100.00
4398;BME280;2213;49.720;7.296;2023-04-29T07:40:00;98145.59;;;12.41;100.00
4398;BME280;2213;49.720;7.296;2023-04-29T07:42:31;98141.34;;;12.40;100.00
4398;BME280;2213;49.720;7.296;2023-04-29T07:45:01;98143.00;;;12.48;100.00
4398;BME280;2213;49.720;7.296;2023-04-29T07:47:31;98144.63;;;12.49;100.00
4398;BME280;2213;49.720;7.296;2023-04-29T07:49:59;98154.91;;;12.50;100.00
4398;BME280;2213;49.720;7.296;2023-04-29T07:52:29;98156.13;;;12.54;100.00
4398;BME280;2213;49.720;7.296;2023-04-29T07:54:59;98157.94;;;12.54;100.00
4398;BME280;2213;49.720;7.296;2023-04-29T07:57:31;98156.72;;;12.56;100.00
4398;BME280;2213;49.720;7.296;2023-04-29T08:00:00;98161.63;;;12.59;100.00
4398;BME280;2213;49.720;7.296;2023-04-29T08:02:30;98163.41;;;12.59;100.00
4398;BME280;2213;49.720;7.296;2023-04-29T08:05:00;98166.47;;;12.63;100.00
4398;BME280;2213;49.720;7.296;2023-04-29T08:07:31;98167.69;;;12.67;100.00
4398;BME280;2213;49.720;7.296;2023-04-29T08:10:01;98172.94;;;12.67;100.00
4398;BME280;2213;49.720;7.296;2023-04-29T08:12:32;98170.91;;;12.69;100.00
4398;BME280;2213;49.720;7.296;2023-04-29T08:15:02;98171.72;;;12.69;100.00
4398;BME280;2213;49.720;7.296;2023-04-29T08:17:36;98170.91;;;12.69;100.00
4398;BME280;2213;49.720;7.296;2023-04-29T08:20:08;98179.78;;;12.68;100.00
4398;BME280;2213;49.720;7.296;2023-04-29T08:22:40;98173.72;;;12.67;100.00
4398;BME280;2213;49.720;7.296;2023-04-29T08:25:11;98179.19;;;12.66;100.00
4398;BME280;2213;49.720;7.296;2023-04-29T08:27:42;98172.31;;;12.65;100.00
4398;BME280;2213;49.720;7.296;2023-04-29T08:30:13;98181.41;;;12.69;100.00
4398;BME280;2213;49.720;7.296;2023-04-29T08:32:43;98180.81;;;12.73;100.00
4398;BME280;2213;49.720;7.296;2023-04-29T08:35:11;98185.84;;;12.75;100.00
4398;BME280;2213;49.720;7.296;2023-04-29T08:37:42;98183.25;;;12.75;100.00
4398;BME280;2213;49.720;7.296;2023-04-29T08:40:13;98189.13;;;12.77;100.00
4398;BME280;2213;49.720;7.296;2023-04-29T08:42:44;98189.31;;;12.82;100.00
4398;BME280;2213;49.720;7.296;2023-04-29T08:45:22;98193.16;;;12.86;100.00
4398;BME280;2213;49.720;7.296;2023-04-29T08:47:53;98195.59;;;12.87;100.00
4398;BME280;2213;49.720;7.296;2023-04-29T08:50:24;98199.00;;;12.88;100.00
4398;BME280;2213;49.720;7.296;2023-04-29T08:52:54;98198.03;;;12.89;100.00
4398;BME280;2213;49.720;7.296;2023-04-29T08:55:24;98202.84;;;12.79;100.00
4398;BME280;2213;49.720;7.296;2023-04-29T08:57:56;98205.47;;;12.85;100.00
4398;BME280;2213;49.720;7.296;2023-04-29T09:00:25;98208.53;;;12.89;100.00
4398;BME280;2213;49.720;7.296;2023-04-29T09:02:57;98212.56;;;12.91;100.00
4398;BME280;2213;49.720;7.296;2023-04-29T09:05:28;98206.88;;;12.88;100.00
4398;BME280;2213;49.720;7.296;2023-04-29T09:07:58;98205.31;;;12.93;100.00
4398;BME280;2213;49.720;7.296;2023-04-29T09:10:30;98207.94;;;12.93;100.00
4398;BME280;2213;49.720;7.296;2023-04-29T09:13:01;98209.34;;;12.96;100.00
4398;BME280;2213;49.720;7.296;2023-04-29T09:15:36;98213.81;;;13.02;100.00
4398;BME280;2213;49.720;7.296;2023-04-29T09:18:06;98207.38;;;13.04;100.00
4398;BME280;2213;49.720;7.296;2023-04-29T09:20:35;98212.63;;;13.04;100.00
4398;BME280;2213;49.720;7.296;2023-04-29T09:23:07;98215.47;;;13.09;100.00
4398;BME280;2213;49.720;7.296;2023-04-29T09:25:36;98222.13;;;13.12;100.00
4398;BME280;2213;49.720;7.296;2023-04-29T09:28:16;98227.59;;;13.10;100.00
4398;BME280;2213;49.720;7.296;2023-04-29T09:30:46;98226.16;;;13.08;100.00
4398;BME280;2213;49.720;7.296;2023-04-29T09:33:18;98235.25;;;13.12;100.00
4398;BME280;2213;49.720;7.296;2023-04-29T09:35:48;98233.66;;;13.11;100.00
4398;BME280;2213;49.720;7.296;2023-04-29T09:38:18;98234.44;;;13.05;100.00
4398;BME280;2213;49.720;7.296;2023-04-29T09:40:50;98238.28;;;13.09;100.00
4398;BME280;2213;49.720;7.296;2023-04-29T09:43:28;98242.53;;;13.10;100.00
4398;BME280;2213;49.720;7.296;2023-04-29T09:45:57;98246.56;;;13.13;100.00
4398;BME280;2213;49.720;7.296;2023-04-29T09:48:30;98247.00;;;13.16;100.00
4398;BME280;2213;49.720;7.296;2023-04-29T09:51:03;98238.94;;;13.18;100.00
4398;BME280;2213;49.720;7.296;2023-04-29T09:53:32;98251.84;;;13.19;100.00
4398;BME280;2213;49.720;7.296;2023-04-29T09:56:04;98249.84;;;13.21;100.00
4398;BME280;2213;49.720;7.296;2023-04-29T09:58:38;98245.19;;;13.23;100.00
4398;BME280;2213;49.720;7.296;2023-04-29T10:01:08;98252.66;;;13.26;100.00
4398;BME280;2213;49.720;7.296;2023-04-29T10:03:41;98251.66;;;13.21;100.00
4398;BME280;2213;49.720;7.296;2023-04-29T10:06:12;98251.47;;;13.22;100.00
4398;BME280;2213;49.720;7.296;2023-04-29T10:08:43;98251.84;;;13.19;100.00
4398;BME280;2213;49.720;7.296;2023-04-29T10:11:14;98250.25;;;13.25;100.00
4398;BME280;2213;49.720;7.296;2023-04-29T10:13:46;98260.75;;;13.25;100.00
4398;BME280;2213;49.720;7.296;2023-04-29T10:16:33;98255.91;;;13.28;100.00
4398;BME280;2213;49.720;7.296;2023-04-29T10:19:11;98259.94;;;13.24;100.00
4398;BME280;2213;49.720;7.296;2023-04-29T10:21:43;98259.75;;;13.26;100.00
4398;BME280;2213;49.720;7.296;2023-04-29T10:24:14;98260.78;;;13.31;100.00
4398;BME280;2213;49.720;7.296;2023-04-29T10:26:47;98249.84;;;13.28;100.00
4398;BME280;2213;49.720;7.296;2023-04-29T10:29:21;98258.56;;;13.28;100.00
4398;BME280;2213;49.720;7.296;2023-04-29T10:31:55;98258.16;;;13.31;100.00
4398;BME280;2213;49.720;7.296;2023-04-29T10:34:28;98259.97;;;13.31;100.00
4398;BME280;2213;49.720;7.296;2023-04-29T10:36:57;98258.16;;;13.31;100.00
4398;BME280;2213;49.720;7.296;2023-04-29T10:39:38;98249.25;;;13.26;100.00
4398;BME280;2213;49.720;7.296;2023-04-29T10:42:20;98258.72;;;13.27;100.00
4398;BME280;2213;49.720;7.296;2023-04-29T10:45:19;98257.97;;;13.33;100.00
4398;BME280;2213;49.720;7.296;2023-04-29T10:48:14;98252.72;;;13.33;100.00
4398;BME280;2213;49.720;7.296;2023-04-29T10:51:01;98256.72;;;13.29;100.00
4398;BME280;2213;49.720;7.296;2023-04-29T10:53:30;98256.72;;;13.29;100.00
4398;BME280;2213;49.720;7.296;2023-04-29T10:56:08;98256.34;;;13.32;100.00
4398;BME280;2213;49.720;7.296;2023-04-29T10:58:43;98261.59;;;13.32;100.00
4398;BME280;2213;49.720;7.296;2023-04-29T11:01:17;98261.19;;;13.28;100.00
4398;BME280;2213;49.720;7.296;2023-04-29T11:03:52;98259.97;;;13.31;100.00
4398;BME280;2213;49.720;7.296;2023-04-29T11:06:40;98260.78;;;13.31;100.00
4398;BME280;2213;49.720;7.296;2023-04-29T11:09:14;98253.91;;;13.30;100.00
4398;BME280;2213;49.720;7.296;2023-04-29T11:11:55;98259.53;;;13.27;100.00
4398;BME280;2213;49.720;7.296;2023-04-29T11:14:28;98257.50;;;13.23;100.00
4398;BME280;2213;49.720;7.296;2023-04-29T11:17:02;98253.91;;;13.30;100.00
4398;BME280;2213;49.720;7.296;2023-04-29T11:19:33;98251.50;;;13.35;100.00
4398;BME280;2213;49.720;7.296;2023-04-29T11:22:12;98262.00;;;13.35;100.00
4398;BME280;2213;49.720;7.296;2023-04-29T11:24:50;98268.06;;;13.36;100.00
4398;BME280;2213;49.720;7.296;2023-04-29T11:27:22;98261.59;;;13.38;100.00
4398;BME280;2213;49.720;7.296;2023-04-29T11:29:54;98267.03;;;13.37;100.00
4398;BME280;2213;49.720;7.296;2023-04-29T11:32:29;98263.00;;;13.34;100.00
4398;BME280;2213;49.720;7.296;2023-04-29T11:35:10;98269.66;;;13.37;100.00
4398;BME280;2213;49.720;7.296;2023-04-29T11:37:42;98267.44;;;13.34;100.00
4398;BME280;2213;49.720;7.296;2023-04-29T11:40:13;98270.47;;;13.37;100.00
4398;BME280;2213;49.720;7.296;2023-04-29T11:42:47;98280.78;;;13.32;100.00
4398;BME280;2213;49.720;7.296;2023-04-29T11:45:17;98276.53;;;13.31;100.00
4398;BME280;2213;49.720;7.296;2023-04-29T11:47:49;98280.78;;;13.32;100.00
4398;BME280;2213;49.720;7.296;2023-04-29T11:50:22;98287.44;;;13.22;100.00
4398;BME280;2213;49.720;7.296;2023-04-29T11:52:53;98288.59;;;13.13;100.00
4398;BME280;2213;49.720;7.296;2023-04-29T11:55:28;98291.16;;;13.06;100.00
4398;BME280;2213;49.720;7.296;2023-04-29T11:57:59;98297.44;;;13.05;100.00
4398;BME280;2213;49.720;7.296;2023-04-29T12:00:30;98287.31;;;13.02;100.00
4398;BME280;2213;49.720;7.296;2023-04-29T12:03:06;98306.88;;;12.93;100.00
4398;BME280;2213;49.720;7.296;2023-04-29T12:05:37;98307.41;;;12.82;100.00
4398;BME280;2213;49.720;7.296;2023-04-29T12:08:07;98301.75;;;12.78;100.00
4398;BME280;2213;49.720;7.296;2023-04-29T12:10:37;98299.31;;;12.77;100.00
4398;BME280;2213;49.720;7.296;2023-04-29T12:13:08;98305.56;;;12.76;100.00
4398;BME280;2213;49.720;7.296;2023-04-29T12:15:37;98305.19;;;12.79;100.00
4398;BME280;2213;49.720;7.296;2023-04-29T12:18:10;98309.41;;;12.73;100.00
4398;BME280;2213;49.720;7.296;2023-04-29T12:20:39;98308.97;;;12.70;100.00
4398;BME280;2213;49.720;7.296;2023-04-29T12:23:13;98315.03;;;12.70;100.00
4398;BME280;2213;49.720;7.296;2023-04-29T12:25:48;98312.00;;;12.67;100.00
4398;BME280;2213;49.720;7.296;2023-04-29T12:28:20;98306.53;;;12.68;100.00
4398;BME280;2213;49.720;7.296;2023-04-29T12:30:51;98315.03;;;12.70;100.00
4398;BME280;2213;49.720;7.296;2023-04-29T12:33:25;98309.19;;;12.75;100.00
4398;BME280;2213;49.720;7.296;2023-04-29T12:35:57;98313.06;;;12.79;100.00
4398;BME280;2213;49.720;7.296;2023-04-29T12:38:29;98321.53;;;12.81;100.00
4398;BME280;2213;49.720;7.296;2023-04-29T12:41:00;98316.09;;;12.82;100.00
4398;BME280;2213;49.720;7.296;2023-04-29T12:43:30;98320.75;;;12.80;100.00
4398;BME280;2213;49.720;7.296;2023-04-29T12:46:03;98318.31;;;12.79;100.00
4398;BME280;2213;49.720;7.296;2023-04-29T12:48:36;98327.16;;;12.78;100.00
4398;BME280;2213;49.720;7.296;2023-04-29T12:51:08;98325.19;;;12.80;100.00
4398;BME280;2213;49.720;7.296;2023-04-29T12:53:38;98327.19;;;12.84;100.00
4398;BME280;2213;49.720;7.296;2023-04-29T12:56:10;98328.66;;;12.87;100.00
4398;BME280;2213;49.720;7.296;2023-04-29T12:58:40;98331.66;;;12.84;100.00
4398;BME280;2213;49.720;7.296;2023-04-29T13:01:10;98333.09;;;12.86;100.00
4398;BME280;2213;49.720;7.296;2023-04-29T13:03:45;98337.13;;;12.89;100.00
4398;BME280;2213;49.720;7.296;2023-04-29T13:06:16;98330.06;;;12.89;100.00
4398;BME280;2213;49.720;7.296;2023-04-29T13:08:47;98336.53;;;12.87;100.00
4398;BME280;2213;49.720;7.296;2023-04-29T13:11:18;98334.31;;;12.90;100.00
4398;BME280;2213;49.720;7.296;2023-04-29T13:13:47;98340.16;;;12.86;100.00
4398;BME280;2213;49.720;7.296;2023-04-29T13:16:16;98343.63;;;12.93;100.00
4398;BME280;2213;49.720;7.296;2023-04-29T13:18:48;98340.19;;;12.99;100.00
4398;BME280;2213;49.720;7.296;2023-04-29T13:21:35;98337.41;;;13.00;100.00
4398;BME280;2213;49.720;7.296;2023-04-29T13:24:06;98336.81;;;13.05;100.00
4398;BME280;2213;49.720;7.296;2023-04-29T13:26:36;98329.31;;;13.02;100.00
4398;BME280;2213;49.720;7.296;2023-04-29T13:29:06;98325.28;;;13.06;100.00
4398;BME280;2213;49.720;7.296;2023-04-29T13:31:36;98327.78;;;13.14;100.00
4398;BME280;2213;49.720;7.296;2023-04-29T13:34:07;98326.41;;;13.18;100.00